Strona główna
METAR-TAF:

METAR-TAF

Lotnisko :

RAF

Holbeach, Anglia

Szerokość geograficzna: 52-52N, Długość geograficzna: 000-09E, wysokość: 3 m

Aktualna obserwacja pogody

Raport powstał 1 godzina i 0 minut temu, godzina 10:50 UTC
Wiatr 23 kt od południowo-południowy zachód
Temperatura 7°C
Wilgotność 93%
Ciśnienie 1010 hPa
Widzialność 10 km lub więcej
Rozproszone chmury na wysokości 2500 ft
Przerywane chmury na wysokości 6000 ft
deszcz

METAR: EGYH 101050Z 20023KT 9999 RA SCT025 BKN060 07/06 Q1010 RMK BLU

czas: 11:50 (11:50 UTC)


TAF: brakujący

Obserwacja i prognoza pogody dla ponad 4000 lotnisk (raport METAR i TAF).

Dostępne stacje oznaczono żółtymi i czerwonymi punktami na mapie.

Najedź kursorem aby zobaczyć nazwę stacji.

Kliknij aby zobaczyć obserwacje i prognozy pogody.

Aby zmienić mapę: kliknij na zielony przycisk z czarnym krzyżykiem, aby powiększyć; na zielony przycisk z myślnikiem, aby pomniejszyć; na zielone strzałki, aby przejść do map sąsiednich.


METAR-TAF: